Time;durP1;ratioP1;P1;durP2;ratioP2;P2;SDS_P1;SDS_P2;PMS_P1;PMS_P2;Temp;Humidity;BMP_temperature;BMP_pressure;BME280_temperature;BME280_humidity;BME280_pressure;Samples;Min_cycle;Max_cycle;Signal;HPM_P1;HPM_P2
2022/04/01 00:01:59;;;;;;;5.60;2.15;;;1.00;99.90;;;;;;4921077;28;20035;-64
2022/04/01 00:04:25;;;;;;;2.60;1.65;;;1.00;99.90;;;;;;4906486;28;20055;-64
2022/04/01 00:06:50;;;;;;;5.85;1.73;;;1.10;99.90;;;;;;4931961;28;20058;-64
2022/04/01 00:09:16;;;;;;;3.78;1.70;;;1.10;99.90;;;;;;4932894;28;20043;-64
2022/04/01 00:11:42;;;;;;;2.70;1.67;;;1.10;99.90;;;;;;4906265;28;20061;-64
2022/04/01 00:14:08;;;;;;;3.90;1.80;;;1.00;99.90;;;;;;4928298;28;20050;-64
2022/04/01 00:16:34;;;;;;;2.42;1.70;;;1.00;99.90;;;;;;4927831;28;20078;-64
2022/04/01 00:19:00;;;;;;;3.45;1.80;;;1.00;99.90;;;;;;4917875;28;20054;-64
2022/04/01 00:21:26;;;;;;;3.45;1.60;;;1.10;99.90;;;;;;4932859;28;20658;-64
2022/04/01 00:23:52;;;;;;;3.05;1.80;;;1.10;99.90;;;;;;4917871;28;20066;-64
2022/04/01 00:26:17;;;;;;;3.00;1.90;;;1.10;99.90;;;;;;4918364;28;20051;-64
2022/04/01 00:28:43;;;;;;;4.45;1.85;;;1.10;99.90;;;;;;4934739;28;20061;-64
2022/04/01 00:31:09;;;;;;;2.63;1.60;;;1.00;99.90;;;;;;4916774;28;20039;-64
2022/04/01 00:33:36;;;;;;;5.05;1.77;;;1.00;99.90;;;;;;4935029;28;20043;-64
2022/04/01 00:36:02;;;;;;;2.67;1.55;;;1.00;99.90;;;;;;4922932;28;20448;-64
2022/04/01 00:38:28;;;;;;;4.13;1.98;;;1.00;99.90;;;;;;4917470;28;20125;-64
2022/04/01 00:40:54;;;;;;;5.93;2.17;;;1.00;99.90;;;;;;4935295;28;20523;-64
2022/04/01 00:43:28;;;;;;;6.45;2.15;;;1.00;99.90;;;;;;4930076;28;20599;-64
2022/04/01 00:45:54;;;;;;;4.10;1.95;;;1.00;99.90;;;;;;4919440;28;20059;-64
2022/04/01 00:48:20;;;;;;;2.92;1.80;;;1.00;99.90;;;;;;4934284;28;20409;-64
2022/04/01 00:50:46;;;;;;;4.35;1.95;;;1.00;99.90;;;;;;4916503;28;20047;-64
2022/04/01 00:53:12;;;;;;;2.85;1.80;;;1.00;99.90;;;;;;4924115;28;20481;-64
2022/04/01 00:55:38;;;;;;;3.88;2.15;;;1.00;99.90;;;;;;4929398;28;20061;-64
2022/04/01 00:58:05;;;;;;;5.25;1.80;;;1.00;99.90;;;;;;4929601;28;20160;-64
2022/04/01 01:00:31;;;;;;;5.25;1.92;;;1.00;99.90;;;;;;4931038;28;20047;-64
2022/04/01 01:02:58;;;;;;;3.67;1.88;;;1.00;99.90;;;;;;4926248;28;20572;-64
2022/04/01 01:05:24;;;;;;;3.47;1.85;;;1.00;99.90;;;;;;4925104;28;20341;-64
2022/04/01 01:07:51;;;;;;;4.75;2.00;;;1.00;99.90;;;;;;4914263;28;20065;-64
2022/04/01 01:10:18;;;;;;;6.32;1.90;;;1.00;99.90;;;;;;4908510;28;20043;-64
2022/04/01 01:12:45;;;;;;;3.10;2.03;;;1.00;99.90;;;;;;4925147;28;20126;-64
2022/04/01 01:15:15;;;;;;;3.95;1.85;;;1.10;99.90;;;;;;4916468;29;20062;-64
2022/04/01 01:17:41;;;;;;;9.50;2.13;;;1.10;99.90;;;;;;4942941;28;20161;-64
2022/04/01 01:20:18;;;;;;;3.33;1.85;;;1.10;99.90;;;;;;4929458;28;20086;-64
2022/04/01 01:22:49;;;;;;;4.05;1.63;;;1.10;99.90;;;;;;4925228;29;20082;-64
2022/04/01 01:25:15;;;;;;;4.97;1.90;;;1.20;99.90;;;;;;4934028;28;20051;-64
2022/04/01 01:27:43;;;;;;;3.70;1.98;;;1.20;99.90;;;;;;4922634;28;20048;-64
2022/04/01 01:30:09;;;;;;;3.75;1.80;;;1.20;99.90;;;;;;4926587;28;20047;-64
2022/04/01 01:32:35;;;;;;;7.40;2.47;;;1.20;99.90;;;;;;4930675;28;20698;-64
2022/04/01 01:35:06;;;;;;;5.20;1.80;;;1.20;99.90;;;;;;4926031;28;20047;-64
2022/04/01 01:37:31;;;;;;;3.80;1.70;;;1.20;99.90;;;;;;4925898;28;20417;-64
2022/04/01 01:39:58;;;;;;;7.15;2.40;;;1.30;99.90;;;;;;4919902;29;20051;-64
2022/04/01 01:42:24;;;;;;;2.67;1.70;;;1.30;99.90;;;;;;4914540;29;20082;-64
2022/04/01 01:44:50;;;;;;;5.65;2.10;;;1.30;99.90;;;;;;4941485;28;20047;-63
2022/04/01 01:47:16;;;;;;;4.28;2.25;;;1.30;99.90;;;;;;4929396;28;20445;-64
2022/04/01 01:54:42;;;;;;;4.57;1.77;;;1.30;99.90;;;;;;4927619;28;20039;-64
2022/04/01 01:55:13;;;;;;;8.27;1.90;;;1.40;99.90;;;;;;4946103;28;20044;-64
2022/04/01 01:57:39;;;;;;;2.88;1.77;;;1.40;99.90;;;;;;4928648;29;20036;-63
2022/04/01 02:00:10;;;;;;;4.18;1.98;;;1.40;99.90;;;;;;4940481;28;20047;-64
2022/04/01 02:02:38;;;;;;;9.23;1.83;;;1.40;99.90;;;;;;4927686;28;20062;-64
2022/04/01 02:05:06;;;;;;;4.38;1.88;;;1.40;99.90;;;;;;4879763;28;20940;-63
2022/04/01 02:07:33;;;;;;;4.85;1.90;;;1.40;99.90;;;;;;4927326;28;20031;-64
2022/04/01 02:09:59;;;;;;;3.45;1.77;;;1.40;99.90;;;;;;4912113;28;20047;-63
2022/04/01 02:12:26;;;;;;;7.05;2.45;;;1.40;99.90;;;;;;4899680;29;20067;-63
2022/04/01 02:14:52;;;;;;;3.92;1.77;;;1.40;99.90;;;;;;4926260;28;20882;-64
2022/04/01 02:17:18;;;;;;;4.35;1.98;;;1.40;99.90;;;;;;4918840;29;20055;-64
2022/04/01 02:19:44;;;;;;;4.85;2.05;;;1.40;99.90;;;;;;4931433;28;20062;-63
2022/04/01 02:22:10;;;;;;;3.63;1.92;;;1.40;99.90;;;;;;4947688;28;20131;-63
2022/04/01 02:24:36;;;;;;;5.65;1.83;;;1.40;99.90;;;;;;4934727;28;20121;-63
2022/04/01 02:27:02;;;;;;;5.65;1.80;;;1.50;99.90;;;;;;4924642;28;20126;-64
2022/04/01 02:29:29;;;;;;;3.33;1.70;;;1.40;99.90;;;;;;4943355;28;20047;-64
2022/04/01 02:31:55;;;;;;;3.13;1.50;;;1.40;99.90;;;;;;4930681;28;20047;-64
2022/04/01 02:34:26;;;;;;;4.75;1.70;;;1.40;99.90;;;;;;4932121;28;20379;-63
2022/04/01 02:36:53;;;;;;;3.60;1.77;;;1.40;99.90;;;;;;4924428;28;20509;-63
2022/04/01 02:39:19;;;;;;;2.95;1.73;;;1.40;99.90;;;;;;4916744;28;20986;-63
2022/04/01 02:41:47;;;;;;;5.63;1.83;;;1.40;99.90;;;;;;4930606;28;20490;-63
2022/04/01 02:44:12;;;;;;;6.32;2.03;;;1.40;99.90;;;;;;4929206;28;20090;-64
2022/04/01 02:46:41;;;;;;;4.28;1.63;;;1.40;99.90;;;;;;4903199;28;20505;-63
2022/04/01 02:49:08;;;;;;;4.40;1.90;;;1.40;99.90;;;;;;4930231;28;20465;-64
2022/04/01 02:51:36;;;;;;;3.30;1.90;;;1.40;99.90;;;;;;4928793;28;20110;-64
2022/04/01 02:54:03;;;;;;;4.57;1.90;;;1.40;99.90;;;;;;4928186;28;20047;-63
2022/04/01 02:56:31;;;;;;;4.05;1.88;;;1.40;99.90;;;;;;4925169;28;20047;-64
2022/04/01 02:58:57;;;;;;;3.72;1.75;;;1.40;99.90;;;;;;4928686;28;20462;-64
2022/04/01 03:01:23;;;;;;;8.77;1.88;;;1.40;99.90;;;;;;4916132;29;20701;-64
2022/04/01 03:03:48;;;;;;;4.30;1.80;;;1.40;99.90;;;;;;4919438;29;20198;-64
2022/04/01 03:06:15;;;;;;;3.92;1.88;;;1.40;99.90;;;;;;4908254;28;20051;-64
2022/04/01 03:08:43;;;;;;;5.88;1.80;;;1.40;99.90;;;;;;4929663;28;20039;-63
2022/04/01 03:11:09;;;;;;;5.68;1.77;;;1.30;99.90;;;;;;4926800;28;20868;-64
2022/04/01 03:13:35;;;;;;;6.18;1.75;;;1.40;99.90;;;;;;4921260;29;20536;-64
2022/04/01 03:16:02;;;;;;;5.93;1.85;;;1.40;99.90;;;;;;4934923;28;20052;-63
2022/04/01 03:18:28;;;;;;;4.82;1.88;;;1.40;99.90;;;;;;4928841;28;20059;-64
2022/04/01 03:20:53;;;;;;;4.07;1.65;;;1.40;99.90;;;;;;4929355;28;20123;-64
2022/04/01 03:23:19;;;;;;;6.47;1.60;;;1.40;99.90;;;;;;4928189;28;20059;-64
2022/04/01 03:25:45;;;;;;;2.58;1.50;;;1.50;99.90;;;;;;4929590;28;20051;-64
2022/04/01 03:28:12;;;;;;;6.40;1.88;;;1.40;99.90;;;;;;4926368;28;20043;-64
2022/04/01 03:30:38;;;;;;;6.03;1.60;;;1.50;99.90;;;;;;4930412;28;20043;-63
2022/04/01 03:33:05;;;;;;;6.18;1.50;;;1.40;99.90;;;;;;4933131;28;20182;-64
2022/04/01 03:35:32;;;;;;;8.18;1.88;;;1.50;99.90;;;;;;4932850;28;20043;-64
2022/04/01 03:37:59;;;;;;;5.15;1.70;;;1.50;99.90;;;;;;4942012;28;20208;-63
2022/04/01 03:40:29;;;;;;;3.67;2.20;;;1.50;99.90;;;;;;4928885;28;21158;-64
2022/04/01 03:42:55;;;;;;;2.72;1.60;;;1.50;99.90;;;;;;4932920;29;20083;-63
2022/04/01 03:45:22;;;;;;;5.13;2.00;;;1.50;99.90;;;;;;4943293;28;20070;-64
2022/04/01 03:47:59;;;;;;;8.75;2.03;;;1.50;99.90;;;;;;4936477;28;20051;-64
2022/04/01 03:50:32;;;;;;;5.40;1.77;;;1.50;99.90;;;;;;4928110;28;20054;-64
2022/04/01 03:53:05;;;;;;;6.32;2.50;;;1.50;99.90;;;;;;4920409;29;20115;-64
2022/04/01 03:55:41;;;;;;;10.13;2.15;;;1.50;99.90;;;;;;4915364;28;20115;-63
2022/04/01 03:58:09;;;;;;;4.28;1.77;;;1.40;99.90;;;;;;4929426;28;20055;-64
2022/04/01 04:00:36;;;;;;;9.55;1.80;;;1.50;99.90;;;;;;4938056;28;20040;-64
2022/04/01 04:03:07;;;;;;;9.25;1.90;;;1.50;99.90;;;;;;4922798;29;20055;-63
2022/04/01 04:05:38;;;;;;;4.05;1.50;;;1.50;99.90;;;;;;4906458;29;22170;-64
2022/04/01 04:08:06;;;;;;;8.02;2.03;;;1.50;99.90;;;;;;4944965;28;20082;-63
2022/04/01 04:10:34;;;;;;;2.95;1.40;;;1.50;99.90;;;;;;4934165;28;21393;-64
2022/04/01 04:13:07;;;;;;;6.38;1.80;;;1.50;99.90;;;;;;4928034;28;20059;-63
2022/04/01 04:15:41;;;;;;;5.10;1.65;;;1.60;99.90;;;;;;4936365;28;20119;-64
2022/04/01 04:18:13;;;;;;;4.63;1.90;;;1.60;99.90;;;;;;4925386;28;20855;-63
2022/04/01 04:20:58;;;;;;;5.45;1.83;;;1.60;99.90;;;;;;4937323;28;20049;-63
2022/04/01 04:23:31;;;;;;;4.03;1.80;;;1.60;99.90;;;;;;4928845;29;20106;-64
2022/04/01 04:26:11;;;;;;;4.50;1.40;;;1.60;99.90;;;;;;4937825;28;20051;-63
2022/04/01 04:28:42;;;;;;;5.25;1.63;;;1.60;99.90;;;;;;4918236;29;20047;-63
2022/04/01 04:31:09;;;;;;;3.28;1.80;;;1.60;99.90;;;;;;4933438;28;20509;-63
2022/04/01 04:33:46;;;;;;;6.95;2.00;;;1.60;99.90;;;;;;4933151;28;20425;-64
2022/04/01 04:36:15;;;;;;;5.75;1.70;;;1.60;99.90;;;;;;4927818;28;20051;-64
2022/04/01 04:38:45;;;;;;;3.85;1.80;;;1.60;99.90;;;;;;4936035;29;20117;-64
2022/04/01 04:41:11;;;;;;;6.15;1.90;;;1.60;99.90;;;;;;4932223;28;20044;-63
2022/04/01 04:43:44;;;;;;;9.15;1.80;;;1.60;99.90;;;;;;4929779;28;20047;-64
2022/04/01 04:46:10;;;;;;;;;;;1.60;99.90;;;;;;4931441;28;20054;-63
2022/04/01 04:48:39;;;;;;;9.80;1.92;;;1.60;99.90;;;;;;4942822;28;19923;-64
2022/04/01 04:51:07;;;;;;;6.10;1.80;;;1.60;99.90;;;;;;4909057;28;20181;-64
2022/04/01 04:53:34;;;;;;;4.15;1.65;;;1.60;99.90;;;;;;4924270;28;20051;-64
2022/04/01 04:56:02;;;;;;;7.57;1.60;;;1.60;99.90;;;;;;4907576;29;20130;-63
2022/04/01 04:58:40;;;;;;;5.15;1.67;;;1.60;99.90;;;;;;4930532;28;20075;-63
2022/04/01 05:01:24;;;;;;;11.75;2.20;;;1.70;99.90;;;;;;4933179;28;20050;-64
2022/04/01 05:04:25;;;;;;;2.72;1.48;;;1.60;99.90;;;;;;4931727;28;20051;-63
2022/04/01 05:07:30;;;;;;;5.03;1.80;;;1.60;99.90;;;;;;4911460;29;20128;-64
2022/04/01 05:10:16;;;;;;;5.78;1.60;;;1.60;99.90;;;;;;4915361;28;20051;-63
2022/04/01 05:13:09;;;;;;;2.35;1.55;;;1.60;99.90;;;;;;4917644;28;20091;-63
2022/04/01 05:15:37;;;;;;;5.55;2.35;;;1.60;99.90;;;;;;4927854;28;20122;-63
2022/04/01 05:18:14;;;;;;;5.40;1.60;;;1.60;99.90;;;;;;4931239;28;20047;-63
2022/04/01 05:20:52;;;;;;;5.72;1.60;;;1.60;99.90;;;;;;4929160;28;20083;-63
2022/04/01 05:23:26;;;;;;;7.07;1.83;;;1.70;99.90;;;;;;4930917;28;20054;-63
2022/04/01 05:25:58;;;;;;;4.20;1.85;;;1.60;99.90;;;;;;4943821;28;20858;-63
2022/04/01 05:28:29;;;;;;;7.32;1.70;;;1.70;99.90;;;;;;4921382;28;20500;-63
2022/04/01 05:31:07;;;;;;;4.07;1.73;;;1.70;99.90;;;;;;4932210;29;20510;-63
2022/04/01 05:33:45;;;;;;;4.35;1.52;;;1.70;99.90;;;;;;4935243;29;20501;-64
2022/04/01 05:36:12;;;;;;;4.07;1.80;;;1.70;99.90;;;;;;4945457;28;20087;-63
2022/04/01 05:38:39;;;;;;;4.97;1.80;;;1.60;99.90;;;;;;4928922;28;20150;-63
2022/04/01 05:41:06;;;;;;;5.28;1.80;;;1.70;99.90;;;;;;4934151;29;20080;-63
2022/04/01 05:43:33;;;;;;;7.60;1.70;;;1.70;99.90;;;;;;4925942;28;20375;-64
2022/04/01 05:45:59;;;;;;;5.57;1.55;;;1.70;99.90;;;;;;4925203;28;20039;-64
2022/04/01 05:48:27;;;;;;;8.93;2.15;;;1.70;99.90;;;;;;4925177;28;20051;-64
2022/04/01 05:50:53;;;;;;;6.70;1.98;;;1.70;99.90;;;;;;4919152;29;20098;-63
2022/04/01 05:53:21;;;;;;;5.38;1.83;;;1.70;99.90;;;;;;4930282;28;20489;-63
2022/04/01 05:55:50;;;;;;;4.35;1.60;;;1.70;99.90;;;;;;4928602;28;20588;-64
2022/04/01 05:58:16;;;;;;;7.40;1.88;;;1.70;99.90;;;;;;4920405;28;20047;-64
2022/04/01 06:01:10;;;;;;;5.05;1.83;;;1.70;99.90;;;;;;4926894;29;20051;-63
2022/04/01 06:03:51;;;;;;;4.32;1.70;;;1.80;99.90;;;;;;4939693;28;20391;-63
2022/04/01 06:06:32;;;;;;;5.60;1.90;;;1.80;99.90;;;;;;4930661;28;20969;-64
2022/04/01 06:09:09;;;;;;;2.50;1.63;;;1.80;99.90;;;;;;4930059;28;20150;-63
2022/04/01 06:12:02;;;;;;;4.00;1.48;;;1.80;99.90;;;;;;4936970;29;20047;-63
2022/04/01 06:14:52;;;;;;;3.83;2.05;;;1.90;99.90;;;;;;4905821;29;20398;-64
2022/04/01 06:17:23;;;;;;;6.47;1.90;;;1.80;99.90;;;;;;4890585;29;20574;-64
2022/04/01 06:19:51;;;;;;;7.15;1.92;;;1.90;99.90;;;;;;4930392;28;20069;-63
2022/04/01 06:22:21;;;;;;;3.03;1.50;;;1.90;99.90;;;;;;4904913;29;20127;-64
2022/04/01 06:24:59;;;;;;;5.38;1.90;;;1.90;99.90;;;;;;4910851;29;20132;-64
2022/04/01 06:27:46;;;;;;;3.78;1.75;;;1.90;99.90;;;;;;4905548;29;20043;-64
2022/04/01 06:30:21;;;;;;;2.78;1.63;;;2.00;99.90;;;;;;4923411;29;20359;-64
2022/04/01 06:32:49;;;;;;;6.07;1.65;;;2.00;99.90;;;;;;4919901;29;20392;-63
2022/04/01 06:35:38;;;;;;;6.72;1.83;;;2.00;99.90;;;;;;4889172;29;20214;-64
2022/04/01 06:38:11;;;;;;;8.63;1.90;;;2.00;99.90;;;;;;4901934;29;20094;-64
2022/04/01 06:41:03;;;;;;;;;;;2.10;99.90;;;;;;4912474;28;20047;-64
2022/04/01 06:43:29;;;;;;;4.72;1.92;;;2.10;99.90;;;;;;4888736;29;19926;-64
2022/04/01 06:45:56;;;;;;;4.13;1.90;;;2.10;99.90;;;;;;4899757;29;20067;-64
2022/04/01 06:48:22;;;;;;;4.55;1.50;;;2.10;99.90;;;;;;4921007;28;20510;-64
2022/04/01 06:50:50;;;;;;;2.95;1.65;;;2.20;99.90;;;;;;4903815;29;20056;-64
2022/04/01 06:53:18;;;;;;;6.18;1.88;;;2.20;99.90;;;;;;4896572;29;20464;-63
2022/04/01 06:55:44;;;;;;;8.45;2.05;;;2.20;99.90;;;;;;4900385;29;20055;-64
2022/04/01 06:58:11;;;;;;;6.13;1.90;;;2.20;99.90;;;;;;4897014;28;20390;-64
2022/04/01 07:00:46;;;;;;;6.25;1.65;;;2.30;99.90;;;;;;4902998;29;20687;-64
2022/04/01 07:03:12;;;;;;;5.88;1.80;;;2.30;99.90;;;;;;4889205;29;20405;-64
2022/04/01 07:05:38;;;;;;;4.28;1.58;;;2.40;99.90;;;;;;4924293;28;20048;-64
2022/04/01 07:08:06;;;;;;;8.68;1.65;;;2.40;99.90;;;;;;4909381;29;20437;-64
2022/04/01 07:10:32;;;;;;;3.83;1.90;;;2.40;99.90;;;;;;4894298;29;20981;-64
2022/04/01 07:12:58;;;;;;;3.13;1.70;;;2.40;99.90;;;;;;4917684;28;20138;-64
2022/04/01 07:15:25;;;;;;;3.45;1.45;;;2.50;99.90;;;;;;4917368;28;20086;-64
2022/04/01 07:17:52;;;;;;;3.97;1.60;;;2.50;99.90;;;;;;4916384;28;20047;-63
2022/04/01 07:20:20;;;;;;;3.33;1.40;;;2.50;99.90;;;;;;4913245;28;20062;-64
2022/04/01 07:22:46;;;;;;;3.08;1.42;;;2.50;99.90;;;;;;4904232;28;20087;-64
2022/04/01 07:25:12;;;;;;;2.17;1.45;;;2.60;99.90;;;;;;4911382;29;20424;-64
2022/04/01 07:27:38;;;;;;;2.80;1.60;;;2.60;99.90;;;;;;4910381;28;20083;-64
2022/04/01 07:30:09;;;;;;;2.50;1.60;;;2.60;99.90;;;;;;4908282;29;20047;-64
2022/04/01 07:32:36;;;;;;;3.40;1.42;;;2.60;99.90;;;;;;4919199;28;20059;-63
2022/04/01 07:35:07;;;;;;;1.73;1.38;;;2.60;99.90;;;;;;4924520;28;20565;-64
2022/04/01 07:37:33;;;;;;;4.38;1.67;;;2.70;99.90;;;;;;4932771;28;20051;-64
2022/04/01 07:39:59;;;;;;;6.22;2.03;;;2.70;99.90;;;;;;4935988;28;20051;-64
2022/04/01 07:42:27;;;;;;;3.53;1.60;;;2.70;99.90;;;;;;4899933;29;20055;-64
2022/04/01 07:44:53;;;;;;;2.97;1.60;;;2.70;99.90;;;;;;4929282;28;20058;-64
2022/04/01 07:47:19;;;;;;;3.03;1.92;;;2.70;99.90;;;;;;4922337;28;20039;-63
2022/04/01 07:49:46;;;;;;;2.95;1.80;;;2.70;99.90;;;;;;4911271;29;20410;-64
2022/04/01 07:52:13;;;;;;;2.13;1.50;;;2.60;99.90;;;;;;4926210;28;20047;-64
2022/04/01 07:54:41;;;;;;;8.52;1.80;;;2.60;99.90;;;;;;4939074;28;20112;-64
2022/04/01 07:57:08;;;;;;;2.40;1.50;;;2.60;99.90;;;;;;4922638;28;20059;-64
2022/04/01 07:59:35;;;;;;;6.97;1.70;;;2.70;99.90;;;;;;4928962;28;20664;-63
2022/04/01 08:02:02;;;;;;;2.85;1.60;;;2.60;99.90;;;;;;4922420;28;20047;-64
2022/04/01 08:04:28;;;;;;;7.03;1.98;;;2.60;99.90;;;;;;4915938;29;20052;-64
2022/04/01 08:06:55;;;;;;;5.20;1.90;;;2.60;99.90;;;;;;4930242;28;20142;-64
2022/04/01 08:09:22;;;;;;;3.67;2.13;;;2.70;99.90;;;;;;4937079;28;20048;-64
2022/04/01 08:11:48;;;;;;;4.63;1.60;;;2.70;99.90;;;;;;4938885;28;20058;-63
2022/04/01 08:14:14;;;;;;;3.92;1.80;;;2.70;99.90;;;;;;4909340;28;20059;-64
2022/04/01 08:16:40;;;;;;;3.53;1.92;;;2.80;99.90;;;;;;4905145;28;20426;-63
2022/04/01 08:19:06;;;;;;;4.50;1.63;;;2.80;99.90;;;;;;4917077;29;20051;-64
2022/04/01 08:21:32;;;;;;;4.15;1.70;;;2.80;99.90;;;;;;4939399;28;20051;-63
2022/04/01 08:24:01;;;;;;;6.28;2.00;;;2.80;99.90;;;;;;4892482;28;20067;-63
2022/04/01 08:26:27;;;;;;;1.98;1.63;;;2.80;99.90;;;;;;4924634;28;20464;-64
2022/04/01 08:28:54;;;;;;;3.92;1.80;;;2.90;99.90;;;;;;4925027;28;20600;-64
2022/04/01 08:31:20;;;;;;;4.30;1.60;;;2.90;99.90;;;;;;4923537;28;20069;-63
2022/04/01 08:33:47;;;;;;;2.88;1.80;;;2.90;99.90;;;;;;4927463;28;20044;-64
2022/04/01 08:36:17;;;;;;;5.20;2.00;;;2.90;99.90;;;;;;4912431;29;20142;-64
2022/04/01 08:38:43;;;;;;;2.90;1.80;;;3.00;99.90;;;;;;4905967;29;20110;-64
2022/04/01 08:41:09;;;;;;;4.47;1.40;;;3.00;99.90;;;;;;4908557;28;20082;-64
2022/04/01 08:43:37;;;;;;;3.28;2.05;;;3.00;99.90;;;;;;4927770;28;20075;-64
2022/04/01 08:46:07;;;;;;;2.53;1.67;;;3.10;99.90;;;;;;4933160;28;20102;-64
2022/04/01 08:48:34;;;;;;;6.25;2.28;;;3.20;99.90;;;;;;4923900;28;20556;-64
2022/04/01 08:51:00;;;;;;;4.03;1.60;;;3.20;99.90;;;;;;4917906;28;20135;-64
2022/04/01 08:53:27;;;;;;;4.55;1.85;;;3.30;99.90;;;;;;4925141;28;20051;-64
2022/04/01 08:55:55;;;;;;;4.40;1.98;;;3.30;99.90;;;;;;4921912;28;20051;-64
2022/04/01 08:58:23;;;;;;;2.75;1.60;;;3.30;99.90;;;;;;4909387;29;20110;-65
2022/04/01 09:00:52;;;;;;;4.53;1.70;;;3.40;99.90;;;;;;4923039;28;20517;-64
2022/04/01 09:03:21;;;;;;;2.60;1.40;;;3.40;99.90;;;;;;4939040;28;20043;-65
2022/04/01 09:05:52;;;;;;;3.35;2.00;;;3.50;99.90;;;;;;4911537;29;20056;-64
2022/04/01 09:08:41;;;;;;;5.05;2.25;;;3.40;99.90;;;;;;4937132;28;20047;-64
2022/04/01 09:11:18;;;;;;;7.65;2.20;;;3.40;99.90;;;;;;4911130;29;20074;-64
2022/04/01 09:13:47;;;;;;;5.07;2.35;;;3.50;99.90;;;;;;4922188;28;20559;-64
2022/04/01 09:16:32;;;;;;;4.55;1.85;;;3.50;99.90;;;;;;4918023;28;20643;-64
2022/04/01 09:19:02;;;;;;;5.93;2.13;;;3.60;99.90;;;;;;4913029;29;20519;-65
2022/04/01 09:21:31;;;;;;;4.72;2.47;;;3.60;99.90;;;;;;4908532;28;20049;-64
2022/04/01 09:23:58;;;;;;;5.53;2.30;;;3.60;99.90;;;;;;4929238;28;20114;-64
2022/04/01 09:26:39;;;;;;;3.58;2.00;;;3.70;99.90;;;;;;4928617;28;20410;-65
2022/04/01 09:29:10;;;;;;;4.47;2.03;;;3.70;99.90;;;;;;4915614;28;20058;-65
2022/04/01 09:31:43;;;;;;;2.88;1.83;;;3.70;99.90;;;;;;4918194;28;20087;-65
2022/04/01 09:34:13;;;;;;;2.05;1.60;;;3.70;99.90;;;;;;4879872;29;20064;-65
2022/04/01 09:36:43;;;;;;;3.60;1.90;;;3.80;99.90;;;;;;4907493;28;20051;-65
2022/04/01 09:39:28;;;;;;;2.33;1.80;;;3.80;99.90;;;;;;4944264;28;20407;-65
2022/04/01 09:41:59;;;;;;;3.85;1.80;;;3.80;99.20;;;;;;4920356;28;20051;-65
2022/04/01 09:44:34;;;;;;;4.10;1.80;;;3.90;99.90;;;;;;4905625;28;20538;-65
2022/04/01 09:47:06;;;;;;;4.18;1.50;;;3.80;99.90;;;;;;4912913;28;20552;-65
2022/04/01 09:49:44;;;;;;;4.68;1.75;;;3.90;99.90;;;;;;4928302;28;20051;-65
2022/04/01 09:52:18;;;;;;;3.22;2.03;;;3.90;99.60;;;;;;4923208;28;20411;-64
2022/04/01 09:54:46;;;;;;;3.42;1.75;;;4.00;99.80;;;;;;4928360;28;20078;-65
2022/04/01 09:57:13;;;;;;;3.65;1.70;;;4.00;99.70;;;;;;4921060;28;20406;-65
2022/04/01 09:59:41;;;;;;;3.50;2.00;;;4.00;99.80;;;;;;4912584;29;20047;-64
2022/04/01 10:02:07;;;;;;;2.10;1.88;;;4.10;99.90;;;;;;4921052;28;20051;-65
2022/04/01 10:04:33;;;;;;;4.82;1.95;;;4.20;99.90;;;;;;4928198;28;20480;-65
2022/04/01 10:07:01;;;;;;;5.43;1.90;;;4.30;99.80;;;;;;4899008;29;20047;-65
2022/04/01 10:09:27;;;;;;;4.15;1.92;;;4.40;99.50;;;;;;4924477;28;20050;-65
2022/04/01 10:11:53;;;;;;;7.72;2.10;;;4.50;99.40;;;;;;4917915;28;20118;-65
2022/04/01 10:14:23;;;;;;;4.78;2.25;;;4.60;99.50;;;;;;4917148;28;20059;-65
2022/04/01 10:16:50;;;;;;;3.75;1.90;;;4.80;98.80;;;;;;4924353;28;20087;-65
2022/04/01 10:19:22;;;;;;;3.78;1.83;;;4.80;97.40;;;;;;4909780;29;20047;-65
2022/04/01 10:21:47;;;;;;;3.03;1.60;;;4.90;97.00;;;;;;4934236;28;20055;-65
2022/04/01 10:24:13;;;;;;;12.43;1.77;;;5.00;96.50;;;;;;4903637;28;20050;-65
2022/04/01 10:26:59;;;;;;;5.28;1.65;;;5.10;95.70;;;;;;4929781;28;20055;-65
2022/04/01 10:29:26;;;;;;;5.85;1.73;;;5.20;95.00;;;;;;4913095;28;20047;-65
2022/04/01 10:31:53;;;;;;;8.93;1.70;;;5.20;90.80;;;;;;4915480;29;20057;-65
2022/04/01 10:34:21;;;;;;;2.88;1.33;;;5.10;88.50;;;;;;4913796;29;20053;-65
2022/04/01 10:37:02;;;;;;;2.38;1.42;;;5.20;83.60;;;;;;4924369;28;20051;-65
2022/04/01 10:39:29;;;;;;;2.55;1.40;;;5.10;82.50;;;;;;4926329;28;20051;-65
2022/04/01 10:42:12;;;;;;;3.50;1.30;;;5.10;83.10;;;;;;4912244;29;20497;-65
2022/04/01 10:44:49;;;;;;;3.50;1.60;;;5.20;80.70;;;;;;4925575;28;21669;-64
2022/04/01 10:47:16;;;;;;;2.00;1.27;;;5.20;79.20;;;;;;4932643;28;20097;-64
2022/04/01 10:52:29;;;;;;;4.30;1.77;;;5.30;80.20;;;;;;4925720;29;20055;-65
2022/04/01 10:55:12;;;;;;;1.85;1.30;;;5.30;80.70;;;;;;4916772;28;20904;-65
2022/04/01 10:57:46;;;;;;;3.78;1.70;;;5.40;81.10;;;;;;4922423;28;20052;-65
2022/04/01 11:00:16;;;;;;;2.42;1.45;;;5.40;78.40;;;;;;4915425;28;20043;-64
2022/04/01 11:02:47;;;;;;;2.97;1.40;;;5.40;77.80;;;;;;4910385;28;20066;-65
2022/04/01 11:05:30;;;;;;;2.33;1.40;;;5.50;75.60;;;;;;4924363;28;20483;-65
2022/04/01 11:08:26;;;;;;;2.70;1.35;;;5.50;74.30;;;;;;4916535;28;20506;-64
2022/04/01 11:11:12;;;;;;;2.42;1.20;;;5.50;76.70;;;;;;4914547;29;20511;-64
2022/04/01 11:13:38;;;;;;;2.22;1.30;;;5.50;77.50;;;;;;4904220;28;20062;-64
2022/04/01 11:16:20;;;;;;;3.65;1.23;;;5.60;74.90;;;;;;4912037;29;20114;-64
2022/04/01 11:19:18;;;;;;;1.85;1.10;;;5.60;73.20;;;;;;4924766;28;20055;-64
2022/04/01 11:21:46;;;;;;;6.85;1.20;;;5.60;73.00;;;;;;4917914;28;20317;-64
2022/04/01 11:24:34;;;;;;;2.53;1.40;;;5.60;71.60;;;;;;4919134;28;20055;-64
2022/04/01 11:27:27;;;;;;;2.13;1.50;;;5.60;69.70;;;;;;4920046;28;20715;-64
2022/04/01 11:30:12;;;;;;;1.63;0.98;;;5.60;70.00;;;;;;4907233;28;20610;-64
2022/04/01 11:32:38;;;;;;;1.60;1.10;;;5.50;68.20;;;;;;4935059;28;23176;-64
2022/04/01 11:35:06;;;;;;;1.95;1.10;;;5.50;64.50;;;;;;4930496;28;20051;-63
2022/04/01 11:37:40;;;;;;;1.73;1.20;;;5.40;64.80;;;;;;4944446;28;20048;-63
2022/04/01 11:40:29;;;;;;;2.00;1.30;;;5.40;67.60;;;;;;4927959;28;20665;-64
2022/04/01 11:43:02;;;;;;;6.63;1.60;;;5.40;71.70;;;;;;4913045;29;20066;-64
2022/04/01 11:45:36;;;;;;;5.40;1.48;;;5.50;73.00;;;;;;4919467;28;20051;-64
2022/04/01 11:48:16;;;;;;;4.40;1.48;;;5.60;72.00;;;;;;4915829;29;20490;-64
2022/04/01 11:50:44;;;;;;;2.45;1.38;;;5.60;72.90;;;;;;4934114;28;20048;-64
2022/04/01 11:53:21;;;;;;;5.65;1.88;;;5.70;73.70;;;;;;4939957;28;20047;-64
2022/04/01 11:55:48;;;;;;;4.80;2.00;;;5.70;75.40;;;;;;4931203;28;20051;-64
2022/04/01 11:58:14;;;;;;;4.38;1.58;;;5.70;75.90;;;;;;4922676;29;20055;-63
2022/04/01 12:00:40;;;;;;;5.75;1.55;;;5.60;72.70;;;;;;4935084;28;20138;-63
2022/04/01 12:03:08;;;;;;;2.83;1.40;;;5.40;74.40;;;;;;4936294;28;20043;-64
2022/04/01 12:05:34;;;;;;;2.60;1.40;;;5.30;75.70;;;;;;4936669;29;20135;-63
2022/04/01 12:10:54;;;;;;;3.20;1.75;;;5.30;77.10;;;;;;4934019;28;20051;-64
2022/04/01 12:13:20;;;;;;;4.78;1.67;;;5.40;80.30;;;;;;4914624;28;20071;-64
2022/04/01 12:15:48;;;;;;;3.58;1.45;;;5.30;78.40;;;;;;4934112;28;20043;-63
2022/04/01 12:18:20;;;;;;;3.30;1.70;;;5.30;78.00;;;;;;4927430;28;20055;-63
2022/04/01 12:20:52;;;;;;;4.05;2.03;;;5.30;81.20;;;;;;4932694;28;20599;-64
2022/04/01 12:23:25;;;;;;;4.50;2.10;;;5.40;85.60;;;;;;4929970;28;20471;-64
2022/04/01 12:25:54;;;;;;;4.65;2.15;;;5.60;89.30;;;;;;4912022;29;20123;-64
2022/04/01 12:28:24;;;;;;;5.97;2.00;;;5.60;90.30;;;;;;4918127;28;20055;-64
2022/04/01 12:30:55;;;;;;;5.43;1.98;;;5.60;91.10;;;;;;4917413;28;20406;-63
2022/04/01 12:33:24;;;;;;;7.28;1.95;;;5.50;91.20;;;;;;4921889;28;20054;-63
2022/04/01 12:36:08;;;;;;;4.47;1.58;;;5.40;91.20;;;;;;4922691;28;20048;-64
2022/04/01 12:38:37;;;;;;;6.15;2.03;;;5.40;92.00;;;;;;4900636;29;20055;-64
2022/04/01 12:41:05;;;;;;;6.32;1.90;;;5.30;92.80;;;;;;4904897;28;20501;-60
2022/04/01 12:43:37;;;;;;;3.13;1.40;;;5.30;92.70;;;;;;4912998;28;20166;-62
2022/04/01 12:46:10;;;;;;;6.33;1.43;;;5.30;88.80;;;;;;4918852;28;20039;-62
2022/04/01 12:49:00;;;;;;;8.00;1.90;;;5.30;89.50;;;;;;4926921;28;20069;-62
2022/04/01 12:51:31;;;;;;;4.50;1.65;;;5.30;90.10;;;;;;4930536;28;20458;-61
2022/04/01 12:54:02;;;;;;;4.57;2.03;;;5.30;90.50;;;;;;4930555;28;20058;-62
2022/04/01 12:56:51;;;;;;;3.30;1.70;;;5.30;90.40;;;;;;4931139;28;20055;-63
2022/04/01 12:59:19;;;;;;;7.43;1.80;;;5.30;90.20;;;;;;4930017;28;20414;-62
2022/04/01 13:02:06;;;;;;;4.35;1.60;;;5.20;91.00;;;;;;4934457;28;20051;-62
2022/04/01 13:04:45;;;;;;;2.25;1.25;;;5.30;91.30;;;;;;4933736;28;20078;-63
2022/04/01 13:07:16;;;;;;;8.80;1.67;;;5.40;86.10;;;;;;4927274;29;20052;-62
2022/04/01 13:09:49;;;;;;;4.90;1.30;;;5.40;88.00;;;;;;4914967;28;20502;-62
2022/04/01 13:12:17;;;;;;;5.88;1.70;;;5.40;86.40;;;;;;4930739;28;20182;-62
2022/04/01 13:14:44;;;;;;;4.97;1.65;;;5.50;87.30;;;;;;4938001;29;20055;-62
2022/04/01 13:17:19;;;;;;;3.05;1.65;;;5.50;88.40;;;;;;4931536;28;20141;-62
2022/04/01 13:19:45;;;;;;;5.93;1.70;;;5.50;89.70;;;;;;4904501;28;20114;-61
2022/04/01 13:22:12;;;;;;;3.65;1.63;;;5.50;89.90;;;;;;4927914;28;20589;-62
2022/04/01 13:24:39;;;;;;;3.95;1.38;;;5.50;86.60;;;;;;4937590;28;20110;-62